Time;durP1;ratioP1;P1;durP2;ratioP2;P2;SDS_P1;SDS_P2;PMS_P1;PMS_P2;Temp;Humidity;BMP_temperature;BMP_pressure;BME280_temperature;BME280_humidity;BME280_pressure;Samples;Min_cycle;Max_cycle;Signal;HPM_P1;HPM_P2
2021/12/22 00:02:30;;;;;;;3.03;2.45;;;;;;;19.64;41.73;97639.88;10428012;28;20053;-54
2021/12/22 00:07:49;;;;;;;3.65;2.50;;;;;;;19.62;41.68;97644.81;10401227;28;20057;-54
2021/12/22 00:13:08;;;;;;;2.60;2.13;;;;;;;19.60;41.61;97652.41;10401594;28;20083;-55
2021/12/22 00:18:28;;;;;;;2.60;2.10;;;;;;;19.58;41.79;97650.00;10401738;28;20707;-54
2021/12/22 00:23:48;;;;;;;2.28;2.08;;;;;;;19.55;41.64;97648.72;10396932;28;20667;-55
2021/12/22 00:29:08;;;;;;;2.83;2.30;;;;;;;19.55;41.67;97656.81;10402037;28;20053;-55
2021/12/22 00:34:28;;;;;;;3.22;2.33;;;;;;;19.53;41.65;97664.44;10394521;28;20053;-54
2021/12/22 00:39:48;;;;;;;2.83;2.40;;;;;;;19.51;41.72;97663.94;10400875;28;20057;-53
2021/12/22 00:45:10;;;;;;;2.20;2.00;;;;;;;19.50;41.72;97672.34;10391106;28;20056;-53
2021/12/22 00:50:30;;;;;;;3.10;2.30;;;;;;;19.48;41.62;97678.06;10400891;28;20061;-55
2021/12/22 00:55:50;;;;;;;2.75;2.47;;;;;;;19.47;41.71;97689.97;10401981;28;20057;-55
2021/12/22 01:01:09;;;;;;;2.45;2.25;;;;;;;19.45;41.70;97681.38;10401251;28;20460;-55
2021/12/22 01:06:29;;;;;;;2.63;2.20;;;;;;;19.44;41.71;97695.97;10370034;28;20057;-54
2021/12/22 01:11:49;;;;;;;3.05;2.35;;;;;;;19.43;41.62;97696.28;10403834;28;20409;-55
2021/12/22 01:17:12;;;;;;;2.58;2.08;;;;;;;19.41;41.70;97698.50;10409080;28;20560;-55
2021/12/22 01:27:52;;;;;;;2.90;2.30;;;;;;;19.36;41.72;97697.47;10408743;28;20663;-53
2021/12/22 01:33:12;;;;;;;2.90;2.25;;;;;;;19.36;41.69;97707.50;10421619;28;20041;-51
2021/12/22 01:38:32;;;;;;;3.38;2.15;;;;;;;19.34;41.74;97709.69;10420882;28;20045;-54
2021/12/22 01:43:54;;;;;;;2.40;2.20;;;;;;;19.34;41.66;97715.09;10406852;28;20124;-52
2021/12/22 01:49:17;;;;;;;3.30;2.22;;;;;;;19.30;41.82;97701.38;10389656;28;20056;-55
2021/12/22 01:54:47;;;;;;;2.08;1.90;;;;;;;19.28;41.63;97706.28;10386952;28;20408;-54
2021/12/22 02:00:07;;;;;;;3.03;1.92;;;;;;;19.28;41.72;97713.59;10407235;28;20489;-51
2021/12/22 02:05:32;;;;;;;2.13;1.92;;;;;;;19.26;41.55;97713.09;10406085;28;20123;-55
2021/12/22 02:10:52;;;;;;;2.40;2.20;;;;;;;19.24;41.64;97709.91;10406341;28;20045;-55
2021/12/22 02:16:16;;;;;;;2.20;1.80;;;;;;;19.23;41.66;97710.97;10419670;28;20141;-53
2021/12/22 02:21:45;;;;;;;2.92;2.30;;;;;;;19.22;41.69;97712.88;10404392;28;20072;-55
2021/12/22 02:27:18;;;;;;;2.58;2.17;;;;;;;19.19;41.58;97702.69;10419086;28;20037;-55
2021/12/22 02:38:16;;;;;;;2.28;2.08;;;;;;;19.16;41.62;97701.38;10393295;28;20057;-53
2021/12/22 02:43:44;;;;;;;2.28;2.08;;;;;;;19.13;41.59;97704.69;10419060;28;20041;-54
2021/12/22 02:49:06;;;;;;;2.03;1.85;;;;;;;19.13;41.58;97711.97;10418141;28;20477;-55
2021/12/22 02:54:28;;;;;;;2.80;1.98;;;;;;;19.10;41.66;97705.28;10404066;28;20576;-53
2021/12/22 03:05:28;;;;;;;2.67;2.10;;;;;;;19.07;41.60;97708.59;10405298;28;20501;-55
2021/12/22 03:10:51;;;;;;;2.20;2.00;;;;;;;19.06;41.69;97709.69;10404171;28;20037;-52
2021/12/22 03:16:11;;;;;;;2.45;2.00;;;;;;;19.04;41.59;97706.47;10404574;28;20054;-55
2021/12/22 03:21:30;;;;;;;2.30;1.83;;;;;;;19.03;41.69;97698.66;10403672;28;20556;-52
2021/12/22 03:26:50;;;;;;;2.55;1.90;;;;;;;19.01;41.59;97692.78;10403062;28;20048;-55
2021/12/22 03:32:10;;;;;;;2.38;2.00;;;;;;;19.00;41.61;97686.56;10403238;28;20046;-54
2021/12/22 03:37:30;;;;;;;2.20;2.00;;;;;;;18.98;41.49;97683.38;10403580;28;20049;-55
2021/12/22 03:42:50;;;;;;;1.90;1.80;;;;;;;18.96;41.68;97689.06;10403352;28;20536;-52
2021/12/22 03:48:10;;;;;;;2.10;2.00;;;;;;;18.95;41.58;97697.47;10404356;28;20059;-52
2021/12/22 03:53:30;;;;;;;2.00;1.73;;;;;;;18.93;41.66;97692.38;10402837;28;20100;-54
2021/12/22 03:58:49;;;;;;;2.10;1.90;;;;;;;18.93;41.52;97696.97;10403647;28;20053;-54
2021/12/22 04:04:14;;;;;;;2.42;1.90;;;;;;;18.89;41.58;97704.84;10401436;28;20045;-53
2021/12/22 04:09:33;;;;;;;2.42;1.70;;;;;;;18.89;41.45;97709.44;10416363;28;20041;-54
2021/12/22 04:14:52;;;;;;;2.20;2.00;;;;;;;18.87;41.48;97698.16;10402649;28;20052;-53
2021/12/22 04:20:12;;;;;;;2.03;1.80;;;;;;;18.86;41.54;97704.66;10402092;28;20061;-54
2021/12/22 04:25:33;;;;;;;2.03;1.60;;;;;;;18.83;41.38;97705.25;10402071;28;20052;-51
2021/12/22 04:30:52;;;;;;;1.70;1.60;;;;;;;18.82;41.29;97695.53;10389120;28;20046;-54
2021/12/22 04:36:12;;;;;;;1.90;1.65;;;;;;;18.81;41.54;97693.94;10416271;28;20092;-53
2021/12/22 04:41:33;;;;;;;1.77;1.67;;;;;;;18.78;41.46;97692.63;10392668;28;20049;-53
2021/12/22 04:46:53;;;;;;;1.70;1.60;;;;;;;18.77;41.58;97702.59;10404219;28;20053;-52
2021/12/22 04:52:18;;;;;;;1.80;1.70;;;;;;;18.76;41.46;97713.72;10409637;28;20060;-53
2021/12/22 04:57:38;;;;;;;1.88;1.70;;;;;;;18.73;41.42;97717.78;10424291;28;20100;-52
2021/12/22 05:02:58;;;;;;;1.70;1.60;;;;;;;18.73;41.42;97717.78;10422504;28;20042;-54
2021/12/22 05:08:18;;;;;;;1.60;1.50;;;;;;;18.71;41.38;97732.69;10406208;28;20057;-54
2021/12/22 05:13:37;;;;;;;1.50;1.38;;;;;;;18.71;41.50;97732.69;10407735;28;20517;-54
2021/12/22 05:19:12;;;;;;;2.85;1.67;;;;;;;18.69;41.49;97740.28;10421053;28;20042;-54
2021/12/22 05:24:32;;;;;;;1.55;1.45;;;;;;;18.69;41.38;97740.28;10406464;28;20049;-54
2021/12/22 05:29:51;;;;;;;1.58;1.48;;;;;;;18.69;41.42;97742.97;10406423;28;20042;-51
2021/12/22 05:35:11;;;;;;;1.60;1.40;;;;;;;18.70;41.49;97742.69;10419769;28;20049;-51
2021/12/22 05:40:31;;;;;;;2.20;1.50;;;;;;;18.71;41.42;97733.47;10418000;28;20042;-54
2021/12/22 05:45:50;;;;;;;1.70;1.60;;;;;;;18.73;41.53;97733.97;10423567;28;20045;-53
2021/12/22 05:51:10;;;;;;;1.88;1.50;;;;;;;18.75;41.65;97731.78;10420843;28;20033;-53
2021/12/22 05:56:30;;;;;;;1.90;1.63;;;;;;;18.78;41.60;97725.00;10407616;28;20060;-51
2021/12/22 06:01:49;;;;;;;1.92;1.50;;;;;;;18.81;41.70;97735.22;10405253;28;20567;-51
2021/12/22 06:07:08;;;;;;;1.98;1.65;;;;;;;18.87;41.65;97744.06;10407436;28;20472;-54
2021/12/22 06:12:28;;;;;;;2.08;1.70;;;;;;;18.90;41.70;97746.16;10419360;28;20032;-55
2021/12/22 06:17:53;;;;;;;2.17;1.40;;;;;;;18.95;41.70;97743.38;10403945;28;20069;-54
2021/12/22 06:23:13;;;;;;;1.55;1.42;;;;;;;18.99;41.82;97747.06;10406277;28;20045;-54
2021/12/22 06:28:33;;;;;;;2.83;1.50;;;;;;;19.05;41.91;97745.09;10405392;28;20463;-51
2021/12/22 06:33:54;;;;;;;2.97;1.40;;;;;;;19.07;41.72;97749.09;10416680;28;20162;-54
2021/12/22 06:39:15;;;;;;;1.65;1.55;;;;;;;19.11;41.85;97750.09;10404920;28;20061;-52
2021/12/22 06:44:35;;;;;;;1.75;1.30;;;;;;;19.17;41.57;97751.63;10400895;28;20049;-53
2021/12/22 06:49:54;;;;;;;2.50;1.67;;;;;;;19.22;41.72;97756.13;10416904;28;20033;-51
2021/12/22 06:55:14;;;;;;;1.83;1.50;;;;;;;19.26;41.58;97767.91;10404870;28;20740;-54
2021/12/22 07:00:36;;;;;;;1.65;1.50;;;;;;;19.30;41.45;97762.72;10404385;28;20049;-51
2021/12/22 07:05:55;;;;;;;1.73;1.63;;;;;;;19.32;41.37;97771.34;10413599;28;20054;-51
2021/12/22 07:11:15;;;;;;;1.98;1.70;;;;;;;19.34;41.30;97775.31;10417244;28;20041;-53
2021/12/22 07:16:35;;;;;;;2.17;1.83;;;;;;;19.37;41.23;97779.34;10418079;28;20507;-53
2021/12/22 07:21:55;;;;;;;1.90;1.70;;;;;;;19.37;41.16;97784.75;10403282;28;20539;-53
2021/12/22 07:27:14;;;;;;;1.98;1.77;;;;;;;19.40;41.29;97799.56;10401529;28;20067;-52
2021/12/22 07:32:34;;;;;;;2.28;2.00;;;;;;;19.42;41.47;97800.84;10398857;28;20124;-51
2021/12/22 07:38:12;;;;;;;2.90;1.80;;;;;;;19.44;41.56;97798.66;10401599;28;20057;-51
2021/12/22 07:43:32;;;;;;;1.93;1.80;;;;;;;19.45;41.67;97802.97;10400893;28;20480;-52
2021/12/22 07:48:52;;;;;;;1.75;1.63;;;;;;;19.46;41.50;97799.16;10400514;28;20998;-51
2021/12/22 07:54:12;;;;;;;2.42;1.85;;;;;;;19.46;41.60;97807.25;10402046;28;20100;-54
2021/12/22 07:59:31;;;;;;;2.50;1.75;;;;;;;19.47;41.42;97806.19;10404653;28;20390;-54
2021/12/22 08:04:51;;;;;;;2.28;1.70;;;;;;;19.48;41.60;97802.41;10400467;28;20053;-51
2021/12/22 08:10:11;;;;;;;2.42;2.10;;;;;;;19.48;41.48;97797.00;10401682;28;20060;-54
2021/12/22 08:15:30;;;;;;;2.80;2.60;;;;;;;19.47;41.35;97795.38;10399857;28;20057;-53
2021/12/22 08:20:50;;;;;;;4.40;3.03;;;;;;;19.46;41.32;97793.75;10417618;28;20049;-52
2021/12/22 08:26:10;;;;;;;4.30;3.47;;;;;;;19.48;41.16;97794.28;10411105;28;20080;-53
2021/12/22 08:31:29;;;;;;;5.22;4.30;;;;;;;19.47;40.94;97787.25;10423590;28;20386;-50
2021/12/22 08:42:28;;;;;;;5.70;4.80;;;;;;;19.49;40.67;97805.88;10370420;28;20057;-53
2021/12/22 08:47:48;;;;;;;5.00;4.50;;;;;;;19.50;40.53;97810.19;10407739;28;20620;-52
2021/12/22 08:53:08;;;;;;;5.65;4.57;;;;;;;19.48;40.57;97813.19;10408350;28;20053;-55
2021/12/22 08:58:27;;;;;;;5.03;4.10;;;;;;;19.49;40.39;97832.91;10408307;28;20128;-51
2021/12/22 09:03:47;;;;;;;5.88;4.70;;;;;;;19.49;40.58;97832.91;10388247;28;20531;-55
2021/12/22 09:09:08;;;;;;;4.88;4.22;;;;;;;19.48;40.64;97824.00;10367155;28;20073;-55
2021/12/22 09:14:27;;;;;;;5.85;4.50;;;;;;;19.47;40.93;97827.81;10366542;28;20042;-51
2021/12/22 09:19:48;;;;;;;8.27;4.53;;;;;;;19.45;40.96;97830.00;10380144;28;20060;-55
2021/12/22 09:25:09;;;;;;;5.25;4.32;;;;;;;19.45;40.93;97826.50;10367319;28;20058;-53
2021/12/22 09:30:35;;;;;;;5.40;4.22;;;;;;;19.45;41.04;97834.63;10379469;28;20046;-54
2021/12/22 09:35:55;;;;;;;4.88;4.13;;;;;;;19.43;41.09;97836.81;10366442;28;20058;-53
2021/12/22 09:41:16;;;;;;;5.32;3.95;;;;;;;19.43;41.08;97831.41;10369264;28;20096;-55
2021/12/22 09:46:38;;;;;;;4.68;4.05;;;;;;;19.42;41.19;97835.19;10379055;28;20037;-52
2021/12/22 09:52:16;;;;;;;4.63;4.00;;;;;;;19.40;41.10;97830.09;10365970;28;20038;-54
2021/12/22 09:57:35;;;;;;;4.40;4.00;;;;;;;19.42;40.91;97824.38;10365986;28;20060;-55
2021/12/22 10:02:55;;;;;;;5.30;4.05;;;;;;;19.43;40.98;97824.09;10379088;28;20049;-56
2021/12/22 10:08:17;;;;;;;4.55;4.15;;;;;;;19.43;41.00;97810.59;10366076;28;20141;-56
2021/12/22 10:13:38;;;;;;;6.40;5.47;;;;;;;19.41;39.21;97801.97;10366178;28;20061;-55
2021/12/22 10:19:05;;;;;;;4.30;3.90;;;;;;;19.37;40.34;97779.34;10365846;28;20064;-56
2021/12/22 10:24:39;;;;;;;5.22;4.05;;;;;;;19.34;40.64;97790.75;10365077;28;20647;-56
2021/12/22 10:29:59;;;;;;;14.80;11.25;;;;;;;19.16;34.36;97784.31;10405970;28;20050;-54
2021/12/22 10:35:29;;;;;;;9.20;7.00;;;;;;;18.92;37.65;97782.56;10402500;28;20037;-53
2021/12/22 10:40:52;;;;;;;8.15;6.40;;;;;;;19.01;38.74;97774.56;10404847;28;20049;-55
2021/12/22 10:46:16;;;;;;;8.00;5.65;;;;;;;19.07;38.74;97767.19;10404815;28;20045;-55
2021/12/22 10:51:40;;;;;;;6.90;5.47;;;;;;;19.09;38.81;97760.41;10404510;28;20053;-55
2021/12/22 10:57:02;;;;;;;6.65;5.10;;;;;;;19.11;39.16;97760.91;10405802;28;20064;-55
2021/12/22 11:02:32;;;;;;;6.30;4.88;;;;;;;19.12;39.51;97759.00;10405440;28;20060;-53
2021/12/22 11:07:51;;;;;;;6.82;5.10;;;;;;;19.11;39.65;97755.50;10377591;28;20062;-54
2021/12/22 11:13:11;;;;;;;7.20;5.00;;;;;;;19.11;40.07;97752.00;10363831;28;20045;-55
2021/12/22 11:18:36;;;;;;;5.60;4.88;;;;;;;19.16;39.08;97747.28;10377132;28;20046;-53
2021/12/22 11:23:55;;;;;;;6.32;4.93;;;;;;;19.12;39.77;97742.81;10363932;28;20042;-55
2021/12/22 11:29:15;;;;;;;5.20;4.47;;;;;;;19.11;39.96;97735.78;10376606;28;20042;-54
2021/12/22 11:34:37;;;;;;;6.47;4.82;;;;;;;19.10;40.03;97726.88;10363751;28;20046;-55
2021/12/22 11:39:57;;;;;;;6.50;4.45;;;;;;;19.09;40.15;97725.31;10349241;28;20078;-55
2021/12/22 11:45:19;;;;;;;4.90;4.13;;;;;;;19.09;40.57;97725.31;10361765;28;20053;-55
2021/12/22 11:50:45;;;;;;;4.47;4.05;;;;;;;19.07;40.54;97714.00;10361816;28;20108;-53
2021/12/22 11:56:04;;;;;;;6.95;4.43;;;;;;;19.07;40.59;97714.00;10374136;28;20040;-55
2021/12/22 12:01:24;;;;;;;7.97;4.28;;;;;;;19.05;40.45;97696.47;10360251;28;20100;-52
2021/12/22 12:06:50;;;;;;;5.88;4.20;;;;;;;19.04;40.52;97701.06;10361325;28;20424;-52
2021/12/22 12:12:45;;;;;;;5.60;4.18;;;;;;;19.03;40.28;97688.66;10361068;28;20056;-54
2021/12/22 12:23:43;;;;;;;5.03;3.93;;;;;;;19.01;39.88;97688.16;10361374;28;20068;-56
2021/12/22 12:29:02;;;;;;;4.30;3.72;;;;;;;19.01;39.69;97684.66;10361156;28;20061;-55
2021/12/22 12:34:22;;;;;;;5.75;3.05;;;;;;;19.01;38.01;97673.88;10361426;28;20701;-56
2021/12/22 12:39:55;;;;;;;3.35;2.92;;;;;;;18.99;38.47;97676.06;10355183;28;20453;-56
2021/12/22 12:45:43;;;;;;;3.00;2.67;;;;;;;18.95;38.09;97667.75;10359320;28;20050;-55
2021/12/22 12:51:17;;;;;;;3.22;2.92;;;;;;;18.93;38.10;97680.75;10358364;28;20093;-55
2021/12/22 12:56:40;;;;;;;4.28;3.28;;;;;;;18.91;38.34;97672.16;10373061;28;20045;-54
2021/12/22 13:02:00;;;;;;;4.32;2.72;;;;;;;18.90;38.53;97667.88;10344089;28;20054;-53
2021/12/22 13:07:21;;;;;;;3.33;2.90;;;;;;;18.89;38.54;97663.56;10353114;28;20065;-56
2021/12/22 13:18:04;;;;;;;5.32;2.83;;;;;;;18.86;38.68;97651.47;10363749;28;20505;-56
2021/12/22 13:23:30;;;;;;;6.05;3.13;;;;;;;18.85;39.14;97646.34;10368473;28;20046;-55
2021/12/22 13:28:49;;;;;;;3.53;3.05;;;;;;;18.83;39.34;97651.25;10366788;28;20109;-55
2021/12/22 13:34:09;;;;;;;4.97;2.60;;;;;;;18.81;40.02;97648.84;10380594;28;20042;-55
2021/12/22 13:39:40;;;;;;;4.97;2.83;;;;;;;18.81;40.36;97664.25;10365833;28;20061;-51
2021/12/22 13:45:00;;;;;;;6.00;3.90;;;;;;;18.68;36.53;97653.13;10370839;28;20054;-50
2021/12/22 13:50:20;;;;;;;7.03;3.30;;;;;;;18.67;39.85;97648.81;10375534;28;20041;-53
2021/12/22 13:55:39;;;;;;;6.03;3.30;;;;;;;18.69;39.99;97641.19;10379099;28;20034;-53
2021/12/22 14:01:31;;;;;;;6.05;3.17;;;;;;;18.71;40.42;97647.09;10374306;28;20046;-52
2021/12/22 14:06:53;;;;;;;4.78;3.25;;;;;;;18.72;40.86;97645.22;10356965;28;20414;-54
2021/12/22 14:12:15;;;;;;;7.97;3.13;;;;;;;18.71;41.24;97635.50;10379379;28;20119;-55
2021/12/22 14:17:44;;;;;;;5.30;3.38;;;;;;;18.72;41.43;97635.22;10351824;28;20065;-56
2021/12/22 14:23:03;;;;;;;4.32;2.92;;;;;;;18.74;41.68;97640.31;10351186;28;20482;-56
2021/12/22 14:28:25;;;;;;;5.30;3.00;;;;;;;18.73;41.74;97641.41;10361955;28;20053;-56
2021/12/22 14:34:02;;;;;;;4.57;2.90;;;;;;;18.73;42.30;97633.31;10373872;28;20104;-56
2021/12/22 14:39:38;;;;;;;6.15;3.20;;;;;;;18.73;41.04;97634.09;10380199;28;20501;-57
2021/12/22 14:45:18;;;;;;;11.38;3.67;;;;;;;18.74;41.49;97624.13;10362983;28;20065;-56
2021/12/22 14:50:40;;;;;;;6.05;3.05;;;;;;;18.76;42.17;97628.13;10354849;28;20041;-56
2021/12/22 14:56:03;;;;;;;6.32;3.28;;;;;;;18.81;42.36;97638.03;10362670;28;20107;-55
2021/12/22 15:01:25;;;;;;;15.60;4.20;;;;;;;18.86;42.76;97635.25;10357505;28;20137;-57
2021/12/22 15:06:47;;;;;;;14.10;6.20;;;;;;;18.90;43.28;97636.25;10356797;28;20058;-52
2021/12/22 15:12:07;;;;;;;22.45;8.55;;;;;;;18.93;44.03;97627.56;10363168;28;20050;-56
2021/12/22 15:17:26;;;;;;;32.33;11.95;;;;;;;19.00;45.28;97616.38;10363255;28;20674;-58
2021/12/22 15:22:45;;;;;;;41.40;15.05;;;;;;;19.02;46.32;97608.75;10364453;28;20045;-60
2021/12/22 15:28:06;;;;;;;36.55;12.55;;;;;;;19.07;47.07;97622.19;10362354;28;20260;-60
2021/12/22 15:33:27;;;;;;;50.38;16.77;;;;;;;19.12;48.15;97618.56;10363379;28;20042;-61
2021/12/22 15:38:47;;;;;;;58.35;19.80;;;;;;;19.16;49.15;97623.06;10372861;28;20034;-57
2021/12/22 15:44:06;;;;;;;50.58;17.30;;;;;;;19.15;47.66;97620.66;10360600;28;20057;-57
2021/12/22 15:49:25;;;;;;;45.15;15.43;;;;;;;19.20;47.60;97615.16;10361557;28;20054;-54
2021/12/22 15:54:45;;;;;;;43.97;14.63;;;;;;;19.23;46.93;97617.25;10371260;28;20397;-56
2021/12/22 16:00:11;;;;;;;35.65;13.02;;;;;;;19.29;47.26;97615.25;10360474;28;20570;-55
2021/12/22 16:05:30;;;;;;;32.15;12.57;;;;;;;19.34;46.87;97623.22;10365166;28;20405;-53
2021/12/22 16:10:50;;;;;;;30.58;11.60;;;;;;;19.39;47.10;97611.53;10403725;28;20516;-55
2021/12/22 16:16:10;;;;;;;29.30;11.07;;;;;;;19.43;47.01;97605.22;10403523;28;20743;-54
2021/12/22 16:21:29;;;;;;;28.85;11.10;;;;;;;19.46;46.78;97607.28;10401030;28;20061;-53
2021/12/22 16:26:49;;;;;;;24.42;10.10;;;;;;;19.51;46.66;97612.59;10375372;28;20481;-53
2021/12/22 16:32:09;;;;;;;23.23;10.05;;;;;;;19.55;46.21;97613.59;10375385;28;20054;-54
2021/12/22 16:37:29;;;;;;;22.95;9.55;;;;;;;19.60;45.83;97598.34;10361036;28;20451;-52
2021/12/22 16:42:49;;;;;;;19.52;8.90;;;;;;;19.64;45.87;97604.75;10377562;28;20057;-53
2021/12/22 16:48:09;;;;;;;22.15;8.98;;;;;;;19.69;45.46;97600.03;10380669;28;20045;-51
2021/12/22 16:53:29;;;;;;;29.77;9.98;;;;;;;19.75;45.04;97595.34;10396924;28;20098;-54
2021/12/22 16:58:50;;;;;;;19.17;8.95;;;;;;;19.83;45.17;97593.81;10392994;28;20537;-55
2021/12/22 17:04:10;;;;;;;18.85;9.65;;;;;;;19.91;45.56;97596.56;10407959;28;20041;-48
2021/12/22 17:09:30;;;;;;;79.00;26.38;;;;;;;19.97;46.41;97586.44;10364888;28;20058;-51
2021/12/22 17:14:50;;;;;;;83.35;33.33;;;;;;;20.04;47.11;97591.44;10380142;28;20068;-54
2021/12/22 17:20:13;;;;;;;66.38;29.67;;;;;;;20.09;47.32;97575.88;10368537;28;20057;-52
2021/12/22 17:25:33;;;;;;;60.72;26.08;;;;;;;20.16;47.35;97583.53;10344362;28;20710;-50
2021/12/22 17:30:52;;;;;;;58.22;24.20;;;;;;;20.24;47.48;97585.50;10358226;28;20412;-54
2021/12/22 17:36:12;;;;;;;50.10;21.02;;;;;;;20.30;47.58;97578.06;10362517;28;20043;-53
2021/12/22 17:41:33;;;;;;;50.65;20.33;;;;;;;20.35;47.12;97586.03;10365490;28;20421;-50
2021/12/22 17:46:53;;;;;;;40.67;18.48;;;;;;;20.39;47.29;97576.19;10380486;28;20046;-50
2021/12/22 17:52:13;;;;;;;40.85;18.33;;;;;;;20.42;46.84;97572.06;10366139;28;20053;-50
2021/12/22 17:57:32;;;;;;;39.72;17.35;;;;;;;20.45;47.04;97566.84;10362162;28;20057;-51
2021/12/22 18:02:51;;;;;;;34.33;16.52;;;;;;;20.48;46.73;97563.50;10364301;28;20041;-51
2021/12/22 18:08:13;;;;;;;35.90;16.05;;;;;;;20.51;46.97;97559.38;10365547;28;20058;-55
2021/12/22 18:13:33;;;;;;;31.30;14.85;;;;;;;20.51;46.97;97559.38;10364342;28;20045;-54
2021/12/22 18:18:53;;;;;;;28.15;18.63;;;;;;;20.49;39.34;97559.69;10365706;28;20130;-55
2021/12/22 18:24:13;;;;;;;28.88;15.38;;;;;;;20.45;42.95;97552.50;10377096;28;20053;-54
2021/12/22 18:29:33;;;;;;;29.33;15.93;;;;;;;20.47;43.47;97540.25;10364460;28;20145;-56
2021/12/22 18:34:53;;;;;;;28.63;15.27;;;;;;;20.47;43.86;97526.72;10362380;28;20041;-55
2021/12/22 18:40:19;;;;;;;25.00;14.48;;;;;;;20.49;44.12;97548.06;10363645;28;20442;-55
2021/12/22 18:45:40;;;;;;;24.52;13.85;;;;;;;20.49;44.48;97548.06;10364296;28;20076;-52
2021/12/22 18:51:00;;;;;;;25.10;13.77;;;;;;;20.51;44.49;97535.81;10360437;28;20065;-55
2021/12/22 18:56:20;;;;;;;29.02;12.80;;;;;;;20.51;44.73;97529.59;10376630;28;20037;-54
2021/12/22 19:01:39;;;;;;;22.80;13.27;;;;;;;20.53;44.89;97544.41;10363214;28;20045;-56
2021/12/22 19:07:01;;;;;;;21.17;12.38;;;;;;;20.53;45.03;97535.50;10354887;28;20456;-57
2021/12/22 19:12:21;;;;;;;24.58;13.25;;;;;;;20.53;45.39;97532.78;10361502;28;20057;-54
2021/12/22 19:17:43;;;;;;;20.20;11.75;;;;;;;20.56;45.08;97521.31;10362736;28;20060;-53
2021/12/22 19:23:04;;;;;;;22.08;12.35;;;;;;;20.57;45.12;97517.53;10359198;28;20046;-56
2021/12/22 19:28:23;;;;;;;19.05;11.48;;;;;;;20.59;44.94;97507.22;10348880;28;20050;-51
2021/12/22 19:33:43;;;;;;;18.35;10.82;;;;;;;20.61;44.97;97506.91;10361041;28;20046;-55
2021/12/22 19:39:02;;;;;;;21.40;11.10;;;;;;;20.61;45.60;97510.41;10362979;28;20460;-55
2021/12/22 19:44:22;;;;;;;21.65;11.43;;;;;;;20.62;45.18;97514.72;10362372;28;20073;-52
2021/12/22 19:49:42;;;;;;;17.75;10.40;;;;;;;20.63;45.26;97513.59;10361855;28;20054;-51
2021/12/22 19:55:04;;;;;;;21.52;10.90;;;;;;;20.62;45.13;97501.19;10375692;28;20528;-51
2021/12/22 20:00:26;;;;;;;20.92;10.57;;;;;;;20.63;45.26;97486.50;10362854;28;20060;-55
2021/12/22 20:05:46;;;;;;;21.30;10.43;;;;;;;20.63;45.42;97472.97;10347985;28;20053;-55
2021/12/22 20:11:06;;;;;;;18.77;9.75;;;;;;;20.64;45.59;97469.19;10361277;28;20057;-55
2021/12/22 20:16:26;;;;;;;15.25;9.60;;;;;;;20.66;45.43;97460.72;10359886;28;20729;-55
2021/12/22 20:21:45;;;;;;;19.90;10.43;;;;;;;20.66;45.45;97461.53;10343014;28;20054;-50
2021/12/22 20:27:07;;;;;;;15.35;9.88;;;;;;;20.64;45.52;97469.19;10361552;28;20081;-52
2021/12/22 20:32:28;;;;;;;18.60;10.43;;;;;;;20.64;45.68;97471.06;10374333;28;20045;-54
2021/12/22 20:37:48;;;;;;;14.95;9.70;;;;;;;20.63;45.69;97481.09;10371135;28;20099;-51
2021/12/22 20:43:11;;;;;;;15.10;9.27;;;;;;;20.63;45.83;97472.97;10362093;28;20100;-53
2021/12/22 20:48:31;;;;;;;14.73;9.40;;;;;;;20.62;45.74;97460.56;10374322;28;20054;-52
2021/12/22 20:53:52;;;;;;;19.17;10.13;;;;;;;20.61;45.95;97445.44;10361310;28;20061;-54
2021/12/22 20:59:12;;;;;;;21.17;8.90;;;;;;;20.61;46.11;97436.53;10373676;28;20038;-54
2021/12/22 21:04:32;;;;;;;15.18;9.00;;;;;;;20.60;45.93;97424.91;10360507;28;20046;-52
2021/12/22 21:09:52;;;;;;;15.82;9.43;;;;;;;20.59;46.16;97423.28;10358998;28;20062;-53
2021/12/22 21:15:12;;;;;;;18.55;9.35;;;;;;;20.60;46.10;97421.38;10361132;28;20056;-54
2021/12/22 21:20:32;;;;;;;14.70;9.07;;;;;;;20.59;46.16;97426.00;10359302;28;20056;-50
2021/12/22 21:25:53;;;;;;;20.45;9.10;;;;;;;20.59;46.40;97425.19;10352901;28;20467;-53
2021/12/22 21:31:12;;;;;;;15.13;8.65;;;;;;;20.58;46.31;97426.28;10366909;28;20655;-52
2021/12/22 21:36:32;;;;;;;16.00;9.13;;;;;;;20.58;46.35;97415.44;10381339;28;20050;-53
2021/12/22 21:41:52;;;;;;;16.48;9.00;;;;;;;20.57;46.40;97420.06;10380699;28;20038;-54
2021/12/22 21:47:12;;;;;;;14.65;8.50;;;;;;;20.56;46.52;97418.47;10359119;28;20054;-56
2021/12/22 21:52:31;;;;;;;15.88;8.88;;;;;;;20.54;46.46;97410.69;10350853;28;20070;-53
2021/12/22 21:57:51;;;;;;;19.75;8.52;;;;;;;20.54;46.54;97413.38;10359970;28;20061;-55
2021/12/22 22:03:11;;;;;;;14.88;8.15;;;;;;;20.55;46.54;97406.06;10366305;28;20050;-55
2021/12/22 22:08:30;;;;;;;14.75;8.25;;;;;;;20.52;46.28;97388.56;10367750;28;20060;-56
2021/12/22 22:13:51;;;;;;;11.23;7.88;;;;;;;20.51;45.95;97376.13;10365316;28;20525;-55
2021/12/22 22:19:13;;;;;;;12.15;7.72;;;;;;;20.49;45.96;97369.44;10360250;28;20050;-55
2021/12/22 22:24:32;;;;;;;17.65;14.43;;;;;;;20.39;38.92;97370.53;10362787;28;20049;-51
2021/12/22 22:29:51;;;;;;;27.65;23.20;;;;;;;18.71;29.29;97355.59;10366532;28;20054;-53
2021/12/22 22:35:12;;;;;;;18.85;15.02;;;;;;;19.17;37.36;97361.88;10365122;28;20634;-53
2021/12/22 22:40:32;;;;;;;27.85;20.23;;;;;;;16.11;22.18;97362.50;10339744;28;20555;-54
2021/12/22 22:45:51;;;;;;;21.15;15.85;;;;;;;17.35;33.01;97359.63;10350190;28;20045;-54
2021/12/22 22:51:10;;;;;;;17.10;13.73;;;;;;;18.36;35.59;97347.19;10345076;28;20074;-52
2021/12/22 22:56:29;;;;;;;16.13;12.88;;;;;;;18.90;35.25;97350.09;10350249;28;20065;-54
2021/12/22 23:01:49;;;;;;;15.25;11.73;;;;;;;19.17;35.36;97330.25;10377490;28;20054;-55
2021/12/22 23:07:09;;;;;;;17.20;11.43;;;;;;;19.33;36.20;97329.88;10363904;28;20128;-55
2021/12/22 23:12:31;;;;;;;14.05;10.73;;;;;;;19.44;36.44;97330.41;10364689;28;20046;-55
2021/12/22 23:18:04;;;;;;;14.80;10.15;;;;;;;19.49;37.14;97317.56;10364367;28;20607;-53
2021/12/22 23:23:25;;;;;;;14.65;10.45;;;;;;;19.53;37.51;97306.91;10364541;28;20050;-54
2021/12/22 23:28:45;;;;;;;12.48;9.40;;;;;;;19.55;37.76;97304.69;10364001;28;20320;-55
2021/12/22 23:34:04;;;;;;;11.40;8.77;;;;;;;19.56;38.10;97300.88;10364047;28;20521;-53
2021/12/22 23:39:32;;;;;;;13.52;9.18;;;;;;;19.56;38.52;97284.66;10361543;28;20050;-52
2021/12/22 23:50:30;;;;;;;10.18;8.15;;;;;;;19.55;39.26;97281.16;10361148;28;20467;-53
2021/12/22 23:55:49;;;;;;;11.57;8.40;;;;;;;19.55;39.49;97281.16;10361324;28;20073;-54
